This is the latest recevied weather packets stored in our database for station/object DH0DM-13. If no packets are shown the sender has not sent any weather packets the latest 10 day(s).
| Time | Temp. | Humidity | Pressure | Rain* | Wind** | Luminosity | Snow |
|---|---|---|---|---|---|---|---|
| 1787602577 | 10.56° C | 92% | 994 hPa | 0 mm | 0 m/s | - | - |
| 1787601976 | 10.56° C | 91% | 993.8 hPa | 0 mm | 0 m/s | - | - |
| 1787601375 | 11.11° C | 91% | 994 hPa | 0 mm | 0 m/s | - | - |
| 1787600775 | 11.11° C | 90% | 993.9 hPa | 0 mm | 0 m/s | - | - |
| 1787600174 | 11.67° C | 90% | 993.8 hPa | 0 mm | 0 m/s | - | - |
| 1787599571 | 11.67° C | 88% | 994 hPa | 0 mm | 0 m/s | - | - |
| 1787598970 | 12.22° C | 88% | 994 hPa | 0 mm | 0 m/s | - | - |
| 1787598369 | 12.22° C | 87% | 993.9 hPa | 0 mm | 0 m/s | - | - |
| 1787597768 | 12.78° C | 86% | 994 hPa | 0 mm | 0 m/s | - | - |
| 1787597167 | 12.78° C | 85% | 994.1 hPa | 0 mm | 0 m/s | - | - |
| 1787596566 | 13.33° C | 84% | 994.1 hPa | 0 mm | 0 m/s | - | - |
| 1787595965 | 13.33° C | 82% | 994 hPa | 0 mm | 0 m/s | - | - |
| 1787595364 | 14.44° C | 79% | 994 hPa | 0 mm | 0 m/s | - | - |
| 1787594763 | 15° C | 76% | 994 hPa | 0 mm | 0 m/s | - | - |
| 1787594163 | 15.56° C | 72% | 994 hPa | 0 mm | 0 m/s | - | - |
| 1787593561 | 16.67° C | 68% | 994.2 hPa | 0 mm | 0 m/s | - | - |
| 1787592961 | 17.22° C | 64% | 994.1 hPa | 0 mm | 0 m/s | - | - |
| 1787592360 | 17.78° C | 62% | 994 hPa | 0 mm | 0 m/s | - | - |
| 1787591759 | 18.33° C | 59% | 994.1 hPa | 0 mm | 2.68 m/s, 71° | - | - |
| 1787591157 | 18.89° C | 56% | 994.3 hPa | 0 mm | 4.02 m/s, 66° | - | - |
| 1787590555 | 18.89° C | 56% | 994.4 hPa | 0 mm | 0.45 m/s, 59° | - | - |
| 1787589959 | 19.44° C | 54% | 994.7 hPa | 0 mm | 2.68 m/s, 89° | - | - |
| 1787589354 | 19.44° C | 54% | 994.4 hPa | 0 mm | 1.34 m/s, 64° | - | - |
| 1787588753 | 20° C | 51% | 994.5 hPa | 0 mm | 0 m/s | - | - |
| 1787588152 | 20.56° C | 52% | 994.6 hPa | 0 mm | 1.34 m/s, 358° | - | - |
* Rain since midnight (hover to see other rain measurements)
** Current wind speed in m/s (hover to see current wind gust speed)